Time;durP1;ratioP1;P1;durP2;ratioP2;P2;SDS_P1;SDS_P2;PMS_P1;PMS_P2;Temp;Humidity;BMP_temperature;BMP_pressure;BME280_temperature;BME280_humidity;BME280_pressure;Samples;Min_cycle;Max_cycle;Signal;HPM_P1;HPM_P2
2022/02/11 00:08:09;;;;;;;2.78;1.12;;;2.70;99.90;;;;;;6686902;88;20755;-76
2022/02/11 00:18:12;;;;;;;3.25;1.30;;;2.70;99.90;;;;;;6688088;88;20299;-76
2022/02/11 00:38:49;;;;;;;3.12;2.00;;;2.70;99.90;;;;;;6686216;88;20237;-77
2022/02/11 01:09:28;;;;;;;5.03;2.75;;;2.80;99.90;;;;;;6683087;88;20184;-77
2022/02/11 01:19:38;;;;;;;4.47;2.50;;;2.80;99.90;;;;;;6683035;88;20634;-77
2022/02/11 01:50:25;;;;;;;11.15;3.35;;;2.80;99.90;;;;;;6683986;89;20183;-76
2022/02/11 02:32:09;;;;;;;11.90;3.92;;;2.70;99.90;;;;;;6688706;88;20252;-75
2022/02/11 03:14:31;;;;;;;10.90;4.93;;;2.60;99.90;;;;;;6692060;88;20225;-75
2022/02/11 04:55:53;;;;;;;14.87;7.25;;;2.50;99.90;;;;;;6689256;88;20175;-76
2022/02/11 05:05:54;;;;;;;16.58;6.15;;;2.60;99.90;;;;;;6687599;88;20239;-76
2022/02/11 05:15:55;;;;;;;16.45;5.25;;;3.00;99.90;;;;;;6682157;88;20226;-75
2022/02/11 05:25:55;;;;;;;13.62;5.75;;;3.10;99.90;;;;;;6690091;88;20313;-74
2022/02/11 05:35:57;;;;;;;17.17;5.78;;;3.30;99.90;;;;;;6689868;88;20214;-76
2022/02/11 05:56:59;;;;;;;11.07;5.03;;;3.50;99.90;;;;;;6666935;89;20217;-75
2022/02/11 06:07:00;;;;;;;19.23;5.07;;;3.60;99.90;;;;;;6666438;89;20196;-76
2022/02/11 06:17:01;;;;;;;14.80;5.12;;;3.70;99.90;;;;;;6665807;89;20700;-76
2022/02/11 06:27:01;;;;;;;17.27;5.00;;;3.70;99.90;;;;;;6665720;89;20235;-76
2022/02/11 06:37:02;;;;;;;18.10;4.85;;;3.80;99.90;;;;;;6665660;89;20323;-75
2022/02/11 06:47:03;;;;;;;13.40;5.00;;;3.80;99.90;;;;;;6664852;89;20198;-75
2022/02/11 06:57:03;;;;;;;12.40;5.47;;;3.70;99.90;;;;;;6670979;88;20230;-75
2022/02/11 07:07:04;;;;;;;11.30;4.55;;;3.90;99.90;;;;;;6672529;88;20319;-75
2022/02/11 07:17:05;;;;;;;12.00;4.00;;;3.80;99.90;;;;;;6673259;89;20219;-75
2022/02/11 07:27:05;;;;;;;18.98;4.43;;;4.00;99.90;;;;;;6664944;89;20219;-75
2022/02/11 07:37:06;;;;;;;11.60;3.17;;;4.10;99.90;;;;;;6663855;89;21148;-75
2022/02/11 07:47:06;;;;;;;11.13;3.00;;;4.30;99.90;;;;;;6661068;89;20267;-75
2022/02/11 07:57:07;;;;;;;12.85;2.47;;;4.40;99.90;;;;;;6665087;89;21104;-75
2022/02/11 08:07:08;;;;;;;14.48;2.60;;;4.40;99.90;;;;;;6677604;88;20199;-75
2022/02/11 08:17:08;;;;;;;14.05;2.80;;;4.50;99.90;;;;;;6677618;89;20171;-75
2022/02/11 08:27:09;;;;;;;12.88;2.55;;;4.80;99.90;;;;;;6671818;89;20196;-75
2022/02/11 08:37:09;;;;;;;9.68;1.98;;;4.80;99.90;;;;;;6671355;89;20179;-75
2022/02/11 08:47:10;;;;;;;9.75;1.58;;;5.10;99.90;;;;;;6670378;89;20327;-75
2022/02/11 08:57:10;;;;;;;7.00;1.40;;;4.90;99.90;;;;;;6668989;89;20552;-75
2022/02/11 09:07:11;;;;;;;10.95;1.92;;;4.90;99.90;;;;;;6677506;89;20180;-74
2022/02/11 09:17:12;;;;;;;8.77;2.17;;;4.90;99.90;;;;;;6668031;89;20225;-74
2022/02/11 09:27:12;;;;;;;13.40;2.23;;;5.70;99.90;;;;;;6671135;89;20510;-74
2022/02/11 09:37:13;;;;;;;8.05;1.60;;;6.20;99.90;;;;;;6668765;89;20554;-74
2022/02/11 09:47:14;;;;;;;14.87;2.17;;;7.00;99.90;;;;;;6668293;89;20216;-74
2022/02/11 09:57:19;;;;;;;12.02;1.67;;;6.90;99.90;;;;;;6667555;89;20190;-74
2022/02/11 10:07:19;;;;;;;12.68;1.80;;;7.30;99.90;;;;;;6669288;89;20198;-74
2022/02/11 10:17:20;;;;;;;10.70;2.00;;;6.70;99.90;;;;;;6667839;89;20203;-75
2022/02/11 10:27:32;;;;;;;13.10;2.20;;;7.00;99.90;;;;;;6665104;89;20680;-75
2022/02/11 10:37:33;;;;;;;15.40;2.17;;;6.40;99.90;;;;;;6664568;89;20315;-75
2022/02/11 10:47:34;;;;;;;10.68;1.83;;;7.00;99.90;;;;;;6662069;89;20681;-75
2022/02/11 10:57:36;;;;;;;14.60;2.08;;;6.10;99.90;;;;;;6661947;89;20295;-75
2022/02/11 11:07:39;;;;;;;12.27;1.80;;;7.50;99.90;;;;;;6662181;89;20860;-75
2022/02/11 11:17:40;;;;;;;12.68;1.60;;;8.70;99.90;;;;;;6661669;89;20203;-75
2022/02/11 11:27:55;;;;;;;8.20;1.42;;;9.00;99.90;;;;;;6661021;89;20589;-75
2022/02/11 11:38:13;;;;;;;11.35;1.80;;;8.20;99.90;;;;;;6661995;89;20234;-75
2022/02/11 11:48:52;;;;;;;8.63;2.00;;;7.80;99.90;;;;;;6679263;78;20189;-77
2022/02/11 11:58:53;;;;;;;10.32;1.87;;;7.70;99.90;;;;;;6706670;88;20179;-77
2022/02/11 12:08:55;;;;;;;15.07;1.92;;;7.70;99.90;;;;;;6709676;88;20678;-76
2022/02/11 12:18:56;;;;;;;15.45;2.10;;;8.10;99.90;;;;;;6702311;88;20657;-76
2022/02/11 12:28:56;;;;;;;10.73;2.00;;;8.00;99.90;;;;;;6711138;88;20228;-76
2022/02/11 12:38:57;;;;;;;11.93;1.70;;;7.70;99.90;;;;;;6702943;88;20179;-77
2022/02/11 12:48:59;;;;;;;9.68;1.60;;;9.80;99.90;;;;;;6703288;88;20210;-76
2022/02/11 12:59:07;;;;;;;9.18;1.50;;;9.10;99.90;;;;;;6700615;88;20274;-76
2022/02/11 13:09:07;;;;;;;9.93;1.35;;;8.50;99.90;;;;;;6697087;88;20227;-75
2022/02/11 13:19:16;;;;;;;12.20;1.77;;;9.80;99.90;;;;;;6707316;88;20661;-76
2022/02/11 13:29:18;;;;;;;9.18;1.90;;;9.20;99.90;;;;;;6710408;88;20239;-76
2022/02/11 13:39:28;;;;;;;6.70;1.40;;;7.90;99.90;;;;;;6709978;88;20179;-76
2022/02/11 13:49:37;;;;;;;10.82;1.90;;;7.00;99.90;;;;;;6705421;88;20410;-76
2022/02/11 13:59:38;;;;;;;10.45;1.67;;;6.60;99.90;;;;;;6703467;88;20339;-76
2022/02/11 14:09:41;;;;;;;12.45;1.87;;;9.20;99.90;;;;;;6701074;88;20250;-76
2022/02/11 14:19:42;;;;;;;9.63;1.70;;;10.40;99.90;;;;;;6704139;88;20734;-76
2022/02/11 14:29:42;;;;;;;14.90;2.25;;;10.80;97.60;;;;;;6705954;88;20212;-76
2022/02/11 14:39:43;;;;;;;12.37;1.77;;;8.50;97.70;;;;;;6706328;88;20212;-76
2022/02/11 14:49:43;;;;;;;12.77;1.60;;;7.90;99.60;;;;;;6707942;88;20192;-76
2022/02/11 14:59:44;;;;;;;14.07;1.83;;;7.60;99.90;;;;;;6704552;88;20657;-76
2022/02/11 15:09:45;;;;;;;12.90;1.30;;;7.30;99.90;;;;;;6707063;88;20758;-76
2022/02/11 15:19:46;;;;;;;6.30;1.10;;;7.40;99.50;;;;;;6704963;88;20546;-76
2022/02/11 15:29:46;;;;;;;9.18;1.00;;;7.10;96.30;;;;;;6724653;88;20198;-76
2022/02/11 15:39:47;;;;;;;7.35;1.35;;;7.00;97.10;;;;;;6712236;88;20217;-76
2022/02/11 15:49:47;;;;;;;8.15;1.75;;;7.10;97.60;;;;;;6706449;88;20291;-76
2022/02/11 15:59:48;;;;;;;12.50;1.73;;;7.10;98.20;;;;;;6698058;88;20220;-75
2022/02/11 16:09:50;;;;;;;12.48;1.67;;;7.00;99.10;;;;;;6699776;88;20214;-76
2022/02/11 16:19:50;;;;;;;9.63;1.67;;;6.70;99.90;;;;;;6695864;88;20633;-76
2022/02/11 16:29:51;;;;;;;10.13;1.40;;;6.50;99.90;;;;;;6709059;88;20208;-75
2022/02/11 16:39:51;;;;;;;10.18;1.35;;;6.20;99.90;;;;;;6699505;88;20235;-76
2022/02/11 16:49:52;;;;;;;3.35;0.98;;;5.90;99.90;;;;;;6703200;88;20202;-78
2022/02/11 16:59:54;;;;;;;12.20;1.67;;;5.60;99.90;;;;;;6714900;88;20309;-76
2022/02/11 17:09:54;;;;;;;11.43;1.90;;;5.30;99.90;;;;;;6702951;88;20239;-76
2022/02/11 17:19:55;;;;;;;8.50;1.92;;;5.00;99.90;;;;;;6703033;88;22300;-76
2022/02/11 17:29:55;;;;;;;15.57;1.95;;;4.70;99.90;;;;;;6701636;88;20722;-75
2022/02/11 17:39:56;;;;;;;9.65;1.67;;;4.60;99.90;;;;;;6701998;88;20235;-75
2022/02/11 17:50:17;;;;;;;12.25;1.95;;;4.40;99.90;;;;;;6705141;77;20242;-76
2022/02/11 18:00:18;;;;;;;8.48;1.85;;;4.20;99.90;;;;;;6615137;89;21061;-76
2022/02/11 18:10:23;;;;;;;13.57;2.58;;;4.00;99.90;;;;;;6614033;89;20226;-75
2022/02/11 18:20:26;;;;;;;11.90;2.40;;;3.90;99.90;;;;;;6613806;89;20235;-75
2022/02/11 18:30:28;;;;;;;7.75;2.60;;;3.60;99.90;;;;;;6598524;90;20195;-75
2022/02/11 18:40:29;;;;;;;11.12;2.62;;;3.30;99.90;;;;;;6599635;89;20208;-74
2022/02/11 18:50:30;;;;;;;13.50;3.40;;;3.30;99.90;;;;;;6604385;89;20198;-75
2022/02/11 19:00:31;;;;;;;17.98;3.17;;;3.30;99.90;;;;;;6621723;89;20781;-78
2022/02/11 19:10:33;;;;;;;19.12;6.18;;;2.90;99.90;;;;;;6621412;89;20196;-76
2022/02/11 19:20:34;;;;;;;18.55;5.37;;;3.00;99.90;;;;;;6632387;88;20620;-76
2022/02/11 19:30:35;;;;;;;17.37;5.00;;;2.80;99.90;;;;;;6615178;89;20214;-74
2022/02/11 19:40:35;;;;;;;14.90;4.05;;;2.40;99.90;;;;;;6616315;89;20194;-75
2022/02/11 19:50:36;;;;;;;19.12;6.25;;;2.20;99.90;;;;;;6634805;88;20277;-76
2022/02/11 20:00:36;;;;;;;18.15;5.70;;;1.90;99.90;;;;;;6611082;89;20195;-78
2022/02/11 20:10:37;;;;;;;14.73;5.10;;;2.00;99.90;;;;;;6611316;89;20212;-76
2022/02/11 20:20:38;;;;;;;16.25;4.62;;;1.50;99.90;;;;;;6620848;88;20215;-76
2022/02/11 20:30:38;;;;;;;12.65;3.97;;;1.20;99.90;;;;;;6612530;89;20782;-76
2022/02/11 20:40:39;;;;;;;14.95;4.37;;;1.10;99.90;;;;;;6607751;89;20206;-76
2022/02/11 20:50:40;;;;;;;22.02;5.60;;;1.10;99.90;;;;;;6615681;89;20231;-75
2022/02/11 21:00:42;;;;;;;16.67;4.82;;;1.10;99.90;;;;;;6616180;89;20189;-76
2022/02/11 21:10:43;;;;;;;11.88;3.47;;;1.00;99.90;;;;;;6617921;89;20624;-76
2022/02/11 21:20:44;;;;;;;11.73;3.05;;;0.90;99.90;;;;;;6617425;89;20206;-77
2022/02/11 21:30:44;;;;;;;16.27;4.18;;;0.90;99.90;;;;;;6626237;88;20227;-74
2022/02/11 21:40:45;;;;;;;10.20;3.72;;;0.90;99.90;;;;;;6612958;89;20708;-74
2022/02/11 21:50:47;;;;;;;16.55;4.47;;;0.70;99.90;;;;;;6616156;88;20212;-75
2022/02/11 22:00:47;;;;;;;17.25;5.45;;;0.30;99.90;;;;;;6613932;89;20522;-76
2022/02/11 22:10:48;;;;;;;18.80;4.90;;;0.30;99.90;;;;;;6611807;89;20963;-76
2022/02/11 22:20:49;;;;;;;16.25;5.45;;;0.30;99.90;;;;;;6624526;89;20201;-76
2022/02/11 22:30:49;;;;;;;15.60;3.95;;;0.10;99.90;;;;;;6634608;88;20359;-77
2022/02/11 22:40:50;;;;;;;14.75;3.50;;;0.20;99.90;;;;;;6616217;89;20398;-76
2022/02/11 23:01:10;;;;;;;11.88;3.12;;;0.40;99.90;;;;;;6623162;89;20748;-77
2022/02/11 23:11:12;;;;;;;10.57;3.12;;;0.50;99.90;;;;;;6610479;89;20264;-76
2022/02/11 23:21:13;;;;;;;12.05;3.17;;;0.50;99.90;;;;;;6604466;89;20256;-76
2022/02/11 23:31:13;;;;;;;14.35;3.40;;;0.40;99.90;;;;;;6599212;90;20216;-77
2022/02/11 23:51:18;;;;;;;13.18;3.45;;;0.20;99.90;;;;;;6712594;88;20226;-76
